createdAt,value
2019-05-03T00:02:29.932Z,99.90
2019-05-03T00:05:17.373Z,99.90
2019-05-03T00:07:46.021Z,99.90
2019-05-03T00:10:14.376Z,99.90
2019-05-03T00:12:42.207Z,99.90
2019-05-03T00:15:22.701Z,99.90
2019-05-03T00:17:52.622Z,99.90
2019-05-03T00:20:21.909Z,99.90
2019-05-03T00:22:49.941Z,99.90
2019-05-03T00:25:17.544Z,99.90
2019-05-03T00:27:46.063Z,99.90
2019-05-03T00:30:14.353Z,99.90
2019-05-03T00:32:42.836Z,99.90
2019-05-03T00:35:15.936Z,99.90
2019-05-03T00:37:45.967Z,99.90
2019-05-03T00:40:21.559Z,99.90
2019-05-03T00:42:51.696Z,99.90
2019-05-03T00:45:19.435Z,99.90
2019-05-03T00:47:47.245Z,99.90
2019-05-03T00:50:15.141Z,99.90
2019-05-03T00:52:45.078Z,99.90
2019-05-03T00:55:17.067Z,99.90
2019-05-03T00:57:44.274Z,99.90
2019-05-03T01:00:12.426Z,99.90
2019-05-03T01:02:42.333Z,99.90
2019-05-03T01:05:11.970Z,99.90
2019-05-03T01:07:42.135Z,99.90
2019-05-03T01:10:11.812Z,99.90
2019-05-03T01:12:41.540Z,99.90
2019-05-03T01:15:14.034Z,99.90
2019-05-03T01:17:42.169Z,99.90
2019-05-03T01:20:11.844Z,99.90
2019-05-03T01:22:42.517Z,99.90
2019-05-03T01:25:12.051Z,99.90
2019-05-03T01:27:39.928Z,99.90
2019-05-03T01:30:07.862Z,99.90
2019-05-03T01:32:36.058Z,99.90
2019-05-03T01:35:04.353Z,99.90
2019-05-03T01:37:32.036Z,99.90
2019-05-03T01:40:01.975Z,99.90
2019-05-03T01:42:29.278Z,99.90
2019-05-03T01:44:58.068Z,99.90
2019-05-03T01:47:36.921Z,99.90
2019-05-03T01:50:13.061Z,99.90
2019-05-03T01:52:41.968Z,99.90
2019-05-03T01:55:13.842Z,99.90
2019-05-03T01:57:39.615Z,99.90
2019-05-03T02:00:12.573Z,99.90
2019-05-03T02:02:54.233Z,99.90
2019-05-03T02:05:45.445Z,99.90
2019-05-03T02:08:13.745Z,99.90
2019-05-03T02:10:43.615Z,99.90
2019-05-03T02:13:12.325Z,99.90
2019-05-03T02:15:42.023Z,99.90
2019-05-03T02:18:12.958Z,99.90
2019-05-03T02:20:41.707Z,99.90
2019-05-03T02:23:09.455Z,99.90
2019-05-03T02:25:37.482Z,99.90
2019-05-03T02:28:06.600Z,99.90
2019-05-03T02:30:43.702Z,99.90
2019-05-03T02:33:13.262Z,99.90
2019-05-03T02:35:42.717Z,99.90
2019-05-03T02:38:12.778Z,99.90
2019-05-03T02:40:39.454Z,99.90
2019-05-03T02:43:21.653Z,99.90
2019-05-03T02:46:27.641Z,99.90
2019-05-03T02:49:17.826Z,99.90
2019-05-03T02:51:46.199Z,99.90
2019-05-03T02:54:15.685Z,99.90
2019-05-03T02:56:45.827Z,99.90
2019-05-03T02:59:15.841Z,99.90
2019-05-03T03:01:42.738Z,99.90
2019-05-03T03:04:10.517Z,99.90
2019-05-03T03:06:40.624Z,99.90
2019-05-03T03:09:08.648Z,99.90
2019-05-03T03:11:38.477Z,99.90
2019-05-03T03:14:10.310Z,99.90
2019-05-03T03:16:40.747Z,99.90
2019-05-03T03:19:10.742Z,99.90
2019-05-03T03:21:46.376Z,99.90
2019-05-03T03:24:17.055Z,99.90
2019-05-03T03:26:48.886Z,99.90
2019-05-03T03:29:19.681Z,99.90
2019-05-03T03:32:00.089Z,99.90
2019-05-03T03:34:38.060Z,99.90
2019-05-03T03:37:08.727Z,99.90
2019-05-03T03:39:35.869Z,99.90
2019-05-03T03:42:05.253Z,99.90
2019-05-03T03:44:36.261Z,99.90
2019-05-03T03:47:05.306Z,99.90
2019-05-03T03:49:35.744Z,99.90
2019-05-03T03:52:06.004Z,99.90
2019-05-03T03:54:35.667Z,99.90
2019-05-03T03:57:07.937Z,99.90
2019-05-03T03:59:36.293Z,99.90
2019-05-03T04:02:05.981Z,99.90
2019-05-03T04:04:35.875Z,99.90
2019-05-03T04:07:06.240Z,99.90
2019-05-03T04:09:36.069Z,99.90
2019-05-03T04:12:05.798Z,99.90
2019-05-03T04:14:51.771Z,99.90
2019-05-03T04:17:57.661Z,99.90
2019-05-03T04:20:28.748Z,99.90
2019-05-03T04:22:57.309Z,99.90
2019-05-03T04:25:26.222Z,99.90
2019-05-03T04:27:56.074Z,99.90
2019-05-03T04:30:25.704Z,99.90
2019-05-03T04:32:56.545Z,99.90
2019-05-03T04:35:26.546Z,99.90
2019-05-03T04:37:56.201Z,99.90
2019-05-03T04:40:25.931Z,99.90
2019-05-03T04:42:55.575Z,99.90
2019-05-03T04:45:25.615Z,99.90
2019-05-03T04:47:52.796Z,99.90
2019-05-03T04:50:20.415Z,99.90
2019-05-03T04:52:48.503Z,99.90
2019-05-03T04:55:16.686Z,99.90
2019-05-03T04:57:49.896Z,99.90
2019-05-03T05:00:16.212Z,99.90
2019-05-03T05:02:45.761Z,99.90
2019-05-03T05:05:15.449Z,99.90
2019-05-03T05:07:45.393Z,99.90
2019-05-03T05:10:15.102Z,99.90
2019-05-03T05:12:42.399Z,99.90
2019-05-03T05:15:10.167Z,99.90
2019-05-03T05:17:56.365Z,99.90
2019-05-03T05:20:45.388Z,99.90
2019-05-03T05:23:14.759Z,99.90
2019-05-03T05:25:48.311Z,99.90
2019-05-03T05:28:22.383Z,99.90
2019-05-03T05:30:50.135Z,99.90
2019-05-03T05:33:22.490Z,99.90
2019-05-03T05:35:50.884Z,99.90
2019-05-03T05:38:18.603Z,99.90
2019-05-03T05:40:46.852Z,99.90
2019-05-03T05:43:15.260Z,99.90
2019-05-03T05:45:44.824Z,99.90
2019-05-03T05:48:24.486Z,99.90
2019-05-03T05:50:52.114Z,99.90
2019-05-03T05:53:20.607Z,99.90
2019-05-03T05:56:10.600Z,99.90
2019-05-03T05:59:01.651Z,99.90
2019-05-03T06:01:35.209Z,99.90
2019-05-03T06:04:05.254Z,99.90
2019-05-03T06:06:50.687Z,99.90
2019-05-03T06:09:30.699Z,99.90
2019-05-03T06:12:04.652Z,99.90
2019-05-03T06:14:37.800Z,99.90
2019-05-03T06:17:17.307Z,99.90
2019-05-03T06:19:50.252Z,99.90
2019-05-03T06:22:46.809Z,99.90
2019-05-03T06:25:26.495Z,99.90
2019-05-03T06:27:54.902Z,99.90
2019-05-03T06:30:41.180Z,99.90
2019-05-03T06:33:09.212Z,99.90
2019-05-03T06:35:38.367Z,99.90
2019-05-03T06:38:06.219Z,99.90
2019-05-03T06:40:35.362Z,99.90
2019-05-03T06:43:09.758Z,99.90
2019-05-03T06:45:32.535Z,99.90
2019-05-03T06:48:00.929Z,99.90
2019-05-03T06:50:29.181Z,99.90
2019-05-03T06:52:59.907Z,99.90
2019-05-03T06:55:26.801Z,99.90
2019-05-03T06:57:54.686Z,99.90
2019-05-03T07:00:48.331Z,99.90
2019-05-03T07:03:27.136Z,99.90
2019-05-03T07:06:14.971Z,99.90
2019-05-03T07:08:54.948Z,99.90
2019-05-03T07:11:24.568Z,99.90
2019-05-03T07:13:52.242Z,99.90
2019-05-03T07:16:20.457Z,99.90
2019-05-03T07:18:49.017Z,99.90
2019-05-03T07:21:16.938Z,99.90
2019-05-03T07:23:45.113Z,99.90
2019-05-03T07:26:15.094Z,99.90
2019-05-03T07:28:47.136Z,99.90
2019-05-03T07:31:12.683Z,99.90
2019-05-03T07:33:40.187Z,99.90
2019-05-03T07:36:07.825Z,99.90
2019-05-03T07:38:35.398Z,99.90
2019-05-03T07:41:05.308Z,99.90
2019-05-03T07:43:35.855Z,99.90
2019-05-03T07:46:05.440Z,99.90
2019-05-03T07:48:35.182Z,99.90
2019-05-03T07:51:02.958Z,99.90
2019-05-03T07:53:30.774Z,99.90
2019-05-03T07:56:06.569Z,99.90
2019-05-03T07:58:35.142Z,99.90
2019-05-03T08:01:08.882Z,99.90
2019-05-03T08:03:35.063Z,99.90
2019-05-03T08:06:04.747Z,99.90
2019-05-03T08:08:32.590Z,99.90
2019-05-03T08:11:00.928Z,99.90
2019-05-03T08:13:29.026Z,99.90
2019-05-03T08:15:56.678Z,99.90
2019-05-03T08:18:25.663Z,99.90
2019-05-03T08:20:55.622Z,99.90
2019-05-03T08:23:29.660Z,99.90
2019-05-03T08:25:55.478Z,99.90
2019-05-03T08:28:24.550Z,99.90
2019-05-03T08:31:04.619Z,99.90
2019-05-03T08:34:00.564Z,99.90
2019-05-03T08:36:30.155Z,99.90
2019-05-03T08:38:57.640Z,99.90
2019-05-03T08:41:27.413Z,99.90
2019-05-03T08:43:56.027Z,99.90
2019-05-03T08:46:25.476Z,99.90
2019-05-03T08:48:54.837Z,99.90
2019-05-03T08:51:24.821Z,99.90
2019-05-03T08:53:52.533Z,99.90
2019-05-03T08:56:20.180Z,99.90
2019-05-03T08:58:48.722Z,99.90
2019-05-03T09:01:17.007Z,99.90
2019-05-03T09:03:45.877Z,99.90
2019-05-03T09:06:15.458Z,99.90
2019-05-03T09:08:45.623Z,99.90
2019-05-03T09:11:15.537Z,99.90
2019-05-03T09:14:04.579Z,99.90
2019-05-03T09:16:32.319Z,99.90
2019-05-03T09:19:00.302Z,99.90
2019-05-03T09:21:28.415Z,99.90
2019-05-03T09:23:56.003Z,99.90
2019-05-03T09:26:26.891Z,99.90
2019-05-03T09:28:55.473Z,99.90
2019-05-03T09:31:24.527Z,99.90
2019-05-03T09:33:54.570Z,99.90
2019-05-03T09:36:25.099Z,99.90
2019-05-03T09:38:54.961Z,99.90
2019-05-03T09:41:22.455Z,99.90
2019-05-03T09:43:50.260Z,99.90
2019-05-03T09:46:18.608Z,99.90
2019-05-03T09:48:46.730Z,99.90
2019-05-03T09:51:14.989Z,99.90
2019-05-03T09:53:48.617Z,99.90
2019-05-03T09:56:18.005Z,99.90
2019-05-03T09:58:46.689Z,99.90
2019-05-03T10:01:16.019Z,99.90
2019-05-03T10:03:45.225Z,99.90
2019-05-03T10:06:15.337Z,99.90
2019-05-03T10:08:45.309Z,99.90
2019-05-03T10:11:15.607Z,99.90
2019-05-03T10:13:48.496Z,99.90
2019-05-03T10:16:15.586Z,99.90
2019-05-03T10:18:43.013Z,99.90
2019-05-03T10:21:10.657Z,98.20
2019-05-03T10:23:40.954Z,99.00
2019-05-03T10:26:09.519Z,94.50
2019-05-03T10:28:37.499Z,94.20
2019-05-03T10:31:07.688Z,94.80
2019-05-03T10:34:05.596Z,94.10
2019-05-03T10:36:32.951Z,94.90
2019-05-03T10:39:00.711Z,88.30
2019-05-03T10:41:29.110Z,83.80
2019-05-03T10:43:56.916Z,85.70
2019-05-03T10:46:25.128Z,82.60
2019-05-03T10:48:55.609Z,79.20
2019-05-03T10:51:27.192Z,77.10
2019-05-03T10:53:57.807Z,75.00
2019-05-03T10:56:50.785Z,75.40
2019-05-03T10:59:20.421Z,67.20
2019-05-03T11:02:06.992Z,62.40
2019-05-03T11:04:35.616Z,61.60
2019-05-03T11:07:05.295Z,65.10
2019-05-03T11:09:47.943Z,68.50
2019-05-03T11:12:05.478Z,65.80
2019-05-03T11:14:35.006Z,62.70
2019-05-03T11:17:02.928Z,63.60
2019-05-03T11:19:32.131Z,63.30
2019-05-03T11:22:00.438Z,63.30
2019-05-03T11:24:28.819Z,60.90
2019-05-03T11:27:00.132Z,59.70
2019-05-03T11:29:28.352Z,60.00
2019-05-03T11:32:15.837Z,59.00
2019-05-03T11:35:12.243Z,57.50
2019-05-03T11:37:47.482Z,54.70
2019-05-03T11:40:15.876Z,51.10
2019-05-03T11:42:44.812Z,49.70
2019-05-03T11:45:15.136Z,49.30
2019-05-03T11:47:42.641Z,47.50
2019-05-03T11:50:11.058Z,47.40
2019-05-03T11:52:38.646Z,48.40
2019-05-03T11:55:11.484Z,49.60
2019-05-03T11:57:36.842Z,51.20
2019-05-03T12:00:05.865Z,53.30
2019-05-03T12:02:52.826Z,55.10
2019-05-03T12:05:24.566Z,55.30
2019-05-03T12:07:54.622Z,57.10
2019-05-03T12:10:37.075Z,59.30
2019-05-03T12:12:58.436Z,59.30
2019-05-03T12:15:26.141Z,59.40
2019-05-03T12:17:59.173Z,58.70
2019-05-03T12:20:28.525Z,58.30
2019-05-03T12:22:56.522Z,55.70
2019-05-03T12:25:26.135Z,53.60
2019-05-03T12:27:54.425Z,54.70
2019-05-03T12:30:25.521Z,56.10
2019-05-03T12:32:54.662Z,58.20
2019-05-03T12:35:24.566Z,56.70
2019-05-03T12:37:55.344Z,56.10
2019-05-03T12:40:22.743Z,54.80
2019-05-03T12:42:50.667Z,53.80
2019-05-03T12:45:18.281Z,52.30
2019-05-03T12:47:45.950Z,51.50
2019-05-03T12:50:15.640Z,49.60
2019-05-03T12:52:50.348Z,49.40
2019-05-03T12:55:15.361Z,49.20
2019-05-03T12:57:45.754Z,50.50
2019-05-03T13:00:29.171Z,52.70
2019-05-03T13:03:06.213Z,52.90
2019-05-03T13:05:35.590Z,53.90
2019-05-03T13:08:36.722Z,54.20
2019-05-03T13:11:05.269Z,55.00
2019-05-03T13:13:35.816Z,57.30
2019-05-03T13:16:04.919Z,57.70
2019-05-03T13:18:35.137Z,58.00
2019-05-03T13:21:05.373Z,58.70
2019-05-03T13:23:35.325Z,59.20
2019-05-03T13:26:02.528Z,61.80
2019-05-03T13:28:30.213Z,63.60
2019-05-03T13:30:57.793Z,66.90
2019-05-03T13:33:26.231Z,68.00
2019-05-03T13:35:55.176Z,68.70
2019-05-03T13:38:25.077Z,67.50
2019-05-03T13:40:54.383Z,70.00
2019-05-03T13:43:22.161Z,71.00
2019-05-03T13:45:50.271Z,71.60
2019-05-03T13:48:20.881Z,72.20
2019-05-03T13:50:48.887Z,72.20
2019-05-03T13:53:16.831Z,70.50
2019-05-03T13:55:45.399Z,70.70
2019-05-03T13:58:14.785Z,71.10
2019-05-03T14:00:42.625Z,70.20
2019-05-03T14:03:10.574Z,70.10
2019-05-03T14:05:38.466Z,70.10
2019-05-03T14:08:06.814Z,71.50
2019-05-03T14:10:36.092Z,71.90
2019-05-03T14:13:05.624Z,72.60
2019-05-03T14:15:34.787Z,75.00
2019-05-03T14:18:05.625Z,75.10
2019-05-03T14:21:11.101Z,77.50
2019-05-03T14:23:57.022Z,76.70
2019-05-03T14:26:24.754Z,75.90
2019-05-03T14:28:52.392Z,74.50
2019-05-03T14:31:20.534Z,71.10
2019-05-03T14:33:48.735Z,69.90
2019-05-03T14:36:16.380Z,69.30
2019-05-03T14:38:46.943Z,65.10
2019-05-03T14:41:15.076Z,61.40
2019-05-03T14:43:42.873Z,61.30
2019-05-03T14:46:10.957Z,59.30
2019-05-03T14:48:39.087Z,59.50
2019-05-03T14:51:07.013Z,61.70
2019-05-03T14:53:34.942Z,62.30
2019-05-03T14:56:11.453Z,62.50
2019-05-03T14:59:07.805Z,63.80
2019-05-03T15:01:41.980Z,65.70
2019-05-03T15:04:09.956Z,65.40
2019-05-03T15:06:39.098Z,66.50
2019-05-03T15:09:07.269Z,64.50
2019-05-03T15:11:35.703Z,64.80
2019-05-03T15:14:05.511Z,65.10
2019-05-03T15:16:34.412Z,64.50
2019-05-03T15:19:05.307Z,67.40
2019-05-03T15:21:34.559Z,67.30
2019-05-03T15:24:02.627Z,68.70
2019-05-03T15:26:32.105Z,69.50
2019-05-03T15:29:00.107Z,69.60
2019-05-03T15:31:27.708Z,69.50
2019-05-03T15:33:55.725Z,70.90
2019-05-03T15:36:24.091Z,68.70
2019-05-03T15:38:51.767Z,68.70
2019-05-03T15:41:19.729Z,70.50
2019-05-03T15:44:02.550Z,71.60
2019-05-03T15:46:45.204Z,69.40
2019-05-03T15:49:15.226Z,70.40
2019-05-03T15:51:44.619Z,67.10
2019-05-03T15:54:12.776Z,68.50
2019-05-03T15:56:40.465Z,67.10
2019-05-03T15:59:08.937Z,67.90
2019-05-03T16:01:37.383Z,68.40
2019-05-03T16:04:06.130Z,69.00
2019-05-03T16:06:34.061Z,68.10
2019-05-03T16:09:01.859Z,68.90
2019-05-03T16:11:31.689Z,67.30
2019-05-03T16:14:00.840Z,67.90
2019-05-03T16:16:29.662Z,68.50
2019-05-03T16:18:57.628Z,68.40
2019-05-03T16:21:25.665Z,69.20
2019-05-03T16:23:55.432Z,67.60
2019-05-03T16:26:25.008Z,67.80
2019-05-03T16:29:05.663Z,71.60
2019-05-03T16:31:34.466Z,70.90
2019-05-03T16:34:04.168Z,72.00
2019-05-03T16:36:32.516Z,68.50
2019-05-03T16:39:00.157Z,66.90
2019-05-03T16:41:27.732Z,66.90
2019-05-03T16:43:55.683Z,65.60
2019-05-03T16:46:23.881Z,66.30
2019-05-03T16:48:52.294Z,68.00
2019-05-03T16:51:20.411Z,69.50
2019-05-03T16:54:07.510Z,67.40
2019-05-03T16:56:35.373Z,66.80
2019-05-03T16:59:03.212Z,68.90
2019-05-03T17:01:32.268Z,72.70
2019-05-03T17:04:19.196Z,71.30
2019-05-03T17:07:21.650Z,72.00
2019-05-03T17:09:55.982Z,72.20
2019-05-03T17:12:26.384Z,75.60
2019-05-03T17:14:54.374Z,77.70
2019-05-03T17:17:25.260Z,78.00
2019-05-03T17:19:55.222Z,77.10
2019-05-03T17:22:25.023Z,77.00
2019-05-03T17:24:52.134Z,75.50
2019-05-03T17:27:20.047Z,75.20
2019-05-03T17:29:47.917Z,75.20
2019-05-03T17:32:15.485Z,74.50
2019-05-03T17:34:45.220Z,75.40
2019-05-03T17:37:13.499Z,72.90
2019-05-03T17:40:05.367Z,72.30
2019-05-03T17:42:52.403Z,71.00
2019-05-03T17:45:25.432Z,69.20
2019-05-03T17:47:54.846Z,69.20
2019-05-03T17:50:22.527Z,72.40
2019-05-03T17:52:59.140Z,73.90
2019-05-03T17:55:40.994Z,76.90
2019-05-03T17:58:37.554Z,78.00
2019-05-03T18:01:12.586Z,79.20
2019-05-03T18:03:42.636Z,77.50
2019-05-03T18:06:20.064Z,76.60
2019-05-03T18:08:55.080Z,76.90
2019-05-03T18:11:34.683Z,75.90
2019-05-03T18:14:05.511Z,77.90
2019-05-03T18:16:35.009Z,80.40
2019-05-03T18:19:02.605Z,81.80
2019-05-03T18:21:30.407Z,90.20
2019-05-03T18:23:57.858Z,83.60
2019-05-03T18:26:26.232Z,84.60
2019-05-03T18:28:55.345Z,87.20
2019-05-03T18:31:24.887Z,88.10
2019-05-03T18:33:54.585Z,89.60
2019-05-03T18:36:22.318Z,90.80
2019-05-03T18:38:50.071Z,91.80
2019-05-03T18:41:17.742Z,91.90
2019-05-03T18:44:05.168Z,93.60
2019-05-03T18:46:37.083Z,92.90
2019-05-03T18:49:05.107Z,92.80
2019-05-03T18:51:34.275Z,93.10
2019-05-03T18:54:05.398Z,92.40
2019-05-03T18:56:32.278Z,93.10
2019-05-03T18:58:59.866Z,94.00
2019-05-03T19:01:27.532Z,93.70
2019-05-03T19:04:00.790Z,93.00
2019-05-03T19:06:28.321Z,92.40
2019-05-03T19:09:34.643Z,92.30
2019-05-03T19:12:27.806Z,93.00
2019-05-03T19:14:55.758Z,94.70
2019-05-03T19:17:32.645Z,98.30
2019-05-03T19:20:00.152Z,99.70
2019-05-03T19:22:29.538Z,99.80
2019-05-03T19:24:57.230Z,99.90
2019-05-03T19:27:25.168Z,99.90
2019-05-03T19:29:53.012Z,99.90
2019-05-03T19:32:20.459Z,99.90
2019-05-03T19:34:51.256Z,99.90
2019-05-03T19:37:18.367Z,99.90
2019-05-03T19:39:46.565Z,99.90
2019-05-03T19:42:16.399Z,99.90
2019-05-03T19:44:45.419Z,99.90
2019-05-03T19:47:13.010Z,99.90
2019-05-03T19:49:41.080Z,99.90
2019-05-03T19:52:10.266Z,99.90
2019-05-03T19:54:38.310Z,99.90
2019-05-03T19:57:05.780Z,99.90
2019-05-03T19:59:50.525Z,99.90
2019-05-03T20:02:34.989Z,99.90
2019-05-03T20:05:15.111Z,99.90
2019-05-03T20:07:59.317Z,99.90
2019-05-03T20:10:28.189Z,99.90
2019-05-03T20:12:55.713Z,99.90
2019-05-03T20:15:23.549Z,99.90
2019-05-03T20:17:57.516Z,99.90
2019-05-03T20:20:20.839Z,99.90
2019-05-03T20:22:48.724Z,99.90
2019-05-03T20:25:16.243Z,99.90
2019-05-03T20:27:44.626Z,99.90
2019-05-03T20:30:14.877Z,99.90
2019-05-03T20:32:42.542Z,99.90
2019-05-03T20:35:14.835Z,99.90
2019-05-03T20:37:40.913Z,99.90
2019-05-03T20:40:09.156Z,99.90
2019-05-03T20:42:54.323Z,99.90
2019-05-03T20:45:27.204Z,99.90
2019-05-03T20:47:57.067Z,99.90
2019-05-03T20:50:24.863Z,99.90
2019-05-03T20:52:52.483Z,99.90
2019-05-03T20:55:20.188Z,99.90
2019-05-03T20:57:47.965Z,99.90
2019-05-03T21:00:21.446Z,99.90
2019-05-03T21:02:53.468Z,99.90
2019-05-03T21:05:29.730Z,99.90
2019-05-03T21:07:48.601Z,99.90
2019-05-03T21:10:16.549Z,99.90
2019-05-03T21:18:30.918Z,99.90
2019-05-03T21:21:12.584Z,99.90
2019-05-03T21:23:44.916Z,99.90
2019-05-03T21:26:16.278Z,99.90
2019-05-03T21:28:44.824Z,99.90
2019-05-03T21:31:12.681Z,99.90
2019-05-03T21:33:40.160Z,99.90
2019-05-03T21:36:07.700Z,99.90
2019-05-03T21:38:35.888Z,99.90
2019-05-03T21:41:05.149Z,99.90
2019-05-03T21:43:34.802Z,99.90
2019-05-03T21:46:28.188Z,99.90
2019-05-03T21:49:09.835Z,99.90
2019-05-03T21:51:37.712Z,99.90
2019-05-03T21:54:06.935Z,99.90
2019-05-03T21:56:35.613Z,99.90
2019-05-03T21:59:05.378Z,99.90
2019-05-03T22:01:37.413Z,99.90
2019-05-03T22:04:04.056Z,99.90
2019-05-03T22:06:31.558Z,99.90
2019-05-03T22:08:59.427Z,99.90
2019-05-03T22:11:26.858Z,99.90
2019-05-03T22:13:57.152Z,99.90
2019-05-03T22:16:47.211Z,99.90
2019-05-03T22:19:19.048Z,99.90
2019-05-03T22:22:05.378Z,99.90
2019-05-03T22:24:42.131Z,99.90
2019-05-03T22:27:15.269Z,99.90
2019-05-03T22:29:44.768Z,99.90
2019-05-03T22:32:12.757Z,99.90
2019-05-03T22:34:40.612Z,99.90
2019-05-03T22:37:08.679Z,99.90
2019-05-03T22:39:36.153Z,99.90
2019-05-03T22:42:04.539Z,99.90
2019-05-03T22:44:32.208Z,99.90
2019-05-03T22:46:59.648Z,99.90
2019-05-03T22:49:27.197Z,99.90
2019-05-03T22:51:54.630Z,99.90
2019-05-03T22:54:22.147Z,99.90
2019-05-03T22:56:49.922Z,99.90
2019-05-03T22:59:17.389Z,99.90
2019-05-03T23:01:45.769Z,99.90
2019-05-03T23:04:14.717Z,99.90
2019-05-03T23:06:46.737Z,99.90
2019-05-03T23:09:11.997Z,99.90
2019-05-03T23:11:39.408Z,99.90
2019-05-03T23:14:07.145Z,99.90
2019-05-03T23:16:35.643Z,99.90
2019-05-03T23:19:05.575Z,99.90
2019-05-03T23:21:59.347Z,99.90
2019-05-03T23:24:27.085Z,99.90
2019-05-03T23:26:55.977Z,99.90
2019-05-03T23:29:23.424Z,99.90
2019-05-03T23:31:50.875Z,99.90
2019-05-03T23:34:19.068Z,99.90
2019-05-03T23:36:46.876Z,99.90
2019-05-03T23:39:14.818Z,99.90
2019-05-03T23:41:42.662Z,99.90
2019-05-03T23:44:10.082Z,99.90
2019-05-03T23:46:45.453Z,99.90
2019-05-03T23:49:14.476Z,99.90
2019-05-03T23:51:50.382Z,99.90
2019-05-03T23:54:18.011Z,99.90
2019-05-03T23:56:46.025Z,99.90
2019-05-03T23:59:14.916Z,99.90
